createdAt,value
2022-09-14T00:01:25.915Z,60.25
2022-09-14T00:04:01.337Z,60.46
2022-09-14T00:06:28.813Z,61.11
2022-09-14T00:08:58.088Z,60.56
2022-09-14T00:11:27.432Z,60.42
2022-09-14T00:13:54.838Z,60.33
2022-09-14T00:16:25.249Z,60.65
2022-09-14T00:19:06.308Z,60.74
2022-09-14T00:21:34.885Z,60.76
2022-09-14T00:24:01.496Z,60.74
2022-09-14T00:26:27.948Z,60.64
2022-09-14T00:28:57.666Z,60.67
2022-09-14T00:31:25.753Z,60.25
2022-09-14T00:33:53.368Z,60.69
2022-09-14T00:36:25.268Z,60.98
2022-09-14T00:38:52.133Z,60.75
2022-09-14T00:41:21.965Z,60.62
2022-09-14T00:44:01.678Z,60.42
2022-09-14T00:46:38.652Z,60.79
2022-09-14T00:49:12.976Z,60.34
2022-09-14T00:51:45.488Z,60.75
2022-09-14T00:54:12.150Z,60.87
2022-09-14T00:56:38.541Z,60.41
2022-09-14T00:59:21.922Z,61.18
2022-09-14T01:01:48.985Z,60.75
2022-09-14T01:04:15.438Z,61.09
2022-09-14T01:07:14.735Z,60.99
2022-09-14T01:09:46.646Z,61.61
2022-09-14T01:12:24.745Z,61.32
2022-09-14T01:14:55.103Z,61.19
2022-09-14T01:17:32.132Z,61.61
2022-09-14T01:20:10.997Z,61.69
2022-09-14T01:22:52.718Z,61.25
2022-09-14T01:25:37.533Z,61.57
2022-09-14T01:28:15.046Z,61.21
2022-09-14T01:30:44.108Z,61.84
2022-09-14T01:33:19.307Z,61.68
2022-09-14T01:35:52.713Z,61.63
2022-09-14T01:38:26.523Z,61.97
2022-09-14T01:40:54.469Z,61.74
2022-09-14T01:43:26.763Z,61.78
2022-09-14T01:46:00.919Z,61.70
2022-09-14T01:48:33.593Z,61.52
2022-09-14T01:51:04.468Z,61.59
2022-09-14T01:53:37.735Z,61.28
2022-09-14T01:56:10.946Z,61.20
2022-09-14T01:59:08.904Z,62.11
2022-09-14T02:01:41.120Z,61.70
2022-09-14T02:04:12.135Z,61.54
2022-09-14T02:06:48.140Z,61.36
2022-09-14T02:09:19.702Z,61.15
2022-09-14T02:11:46.887Z,61.60
2022-09-14T02:14:13.327Z,61.89
2022-09-14T02:16:43.437Z,61.76
2022-09-14T02:19:10.455Z,61.19
2022-09-14T02:21:38.302Z,61.44
2022-09-14T02:24:05.493Z,61.66
2022-09-14T02:26:32.791Z,62.34
2022-09-14T02:28:59.401Z,61.94
2022-09-14T02:31:50.209Z,61.93
2022-09-14T02:34:43.058Z,61.63
2022-09-14T02:37:37.284Z,61.69
2022-09-14T02:40:06.800Z,61.88
2022-09-14T02:43:00.235Z,62.04
2022-09-14T02:45:45.148Z,61.50
2022-09-14T02:48:36.633Z,63.35
2022-09-14T02:51:15.298Z,62.80
2022-09-14T02:53:53.575Z,63.06
2022-09-14T02:56:21.182Z,62.35
2022-09-14T02:58:47.842Z,62.33
2022-09-14T03:01:21.488Z,62.33
2022-09-14T03:03:47.944Z,62.44
2022-09-14T03:06:15.088Z,62.48
2022-09-14T03:08:41.935Z,61.94
2022-09-14T03:11:08.605Z,61.70
2022-09-14T03:13:35.751Z,62.03
2022-09-14T03:16:07.118Z,62.29
2022-09-14T03:18:34.739Z,62.19
2022-09-14T03:21:08.508Z,61.89
2022-09-14T03:23:39.432Z,62.00
2022-09-14T03:26:21.208Z,62.26
2022-09-14T03:28:56.326Z,61.86
2022-09-14T03:31:23.580Z,61.94
2022-09-14T03:33:57.782Z,61.96
2022-09-14T03:36:26.676Z,61.87
2022-09-14T03:38:55.657Z,61.93
2022-09-14T03:41:23.141Z,62.37
2022-09-14T03:43:49.852Z,61.92
2022-09-14T03:46:20.455Z,62.33
2022-09-14T03:48:47.421Z,62.12
2022-09-14T03:51:14.615Z,62.26
2022-09-14T03:53:42.897Z,62.19
2022-09-14T03:56:11.680Z,62.62
2022-09-14T03:58:38.614Z,62.24
2022-09-14T04:01:11.297Z,62.17
2022-09-14T04:03:37.786Z,62.50
2022-09-14T04:06:05.386Z,62.73
2022-09-14T04:08:37.179Z,64.13
2022-09-14T04:11:12.955Z,62.84
2022-09-14T04:13:39.725Z,62.58
2022-09-14T04:16:06.367Z,63.12
2022-09-14T04:18:33.303Z,62.69
2022-09-14T04:21:07.889Z,62.36
2022-09-14T04:23:42.269Z,62.96
2022-09-14T04:26:23.924Z,63.09
2022-09-14T04:28:50.368Z,62.90
2022-09-14T04:31:17.026Z,62.39
2022-09-14T04:33:44.234Z,62.62
2022-09-14T04:36:13.550Z,62.40
2022-09-14T04:38:41.448Z,62.30
2022-09-14T04:41:14.040Z,62.22
2022-09-14T04:43:41.243Z,63.06
2022-09-14T04:46:36.377Z,63.91
2022-09-14T04:49:03.161Z,63.22
2022-09-14T04:51:31.351Z,63.30
2022-09-14T04:53:59.363Z,62.77
2022-09-14T04:56:27.381Z,64.89
2022-09-14T04:58:56.707Z,63.80
2022-09-14T05:01:26.115Z,63.54
2022-09-14T05:03:53.748Z,63.81
2022-09-14T05:06:25.455Z,63.35
2022-09-14T05:08:53.587Z,63.09
2022-09-14T05:11:23.089Z,63.89
2022-09-14T05:13:50.880Z,64.39
2022-09-14T05:16:19.737Z,64.30
2022-09-14T05:18:46.831Z,65.30
2022-09-14T05:21:15.717Z,65.43
2022-09-14T05:23:42.547Z,65.27
2022-09-14T05:26:09.545Z,66.07
2022-09-14T05:28:36.593Z,64.01
2022-09-14T05:31:08.279Z,63.29
2022-09-14T05:33:35.018Z,63.67
2022-09-14T05:36:02.997Z,63.45
2022-09-14T05:38:30.908Z,63.33
2022-09-14T05:40:57.715Z,62.76
2022-09-14T05:43:24.943Z,63.69
2022-09-14T05:45:51.927Z,62.68
2022-09-14T05:48:18.469Z,62.76
2022-09-14T05:50:46.252Z,63.02
2022-09-14T05:53:13.058Z,62.59
2022-09-14T05:55:39.509Z,62.71
2022-09-14T05:58:05.984Z,63.10
2022-09-14T06:00:32.462Z,62.82
2022-09-14T06:02:58.853Z,62.48
2022-09-14T06:05:25.650Z,62.37
2022-09-14T06:07:53.620Z,62.44
2022-09-14T06:10:21.019Z,62.82
2022-09-14T06:12:48.805Z,63.54
2022-09-14T06:15:17.497Z,62.68
2022-09-14T06:17:43.952Z,61.80
2022-09-14T06:20:10.961Z,62.24
2022-09-14T06:22:37.401Z,62.23
2022-09-14T06:25:04.120Z,63.39
2022-09-14T06:27:30.507Z,63.70
2022-09-14T06:29:57.052Z,63.40
2022-09-14T06:32:23.524Z,62.12
2022-09-14T06:34:50.033Z,62.37
2022-09-14T06:37:16.494Z,61.80
2022-09-14T06:39:43.090Z,61.76
2022-09-14T06:42:09.562Z,63.01
2022-09-14T06:44:35.964Z,61.55
2022-09-14T06:47:02.413Z,61.61
2022-09-14T06:49:29.013Z,61.47
2022-09-14T06:51:57.407Z,63.05
2022-09-14T06:54:25.410Z,63.06
2022-09-14T06:56:51.922Z,62.00
2022-09-14T06:59:19.165Z,62.40
2022-09-14T07:01:46.326Z,63.03
2022-09-14T07:04:14.252Z,61.52
2022-09-14T07:06:43.377Z,61.07
2022-09-14T07:09:10.215Z,60.26
2022-09-14T07:11:37.262Z,60.83
2022-09-14T07:14:04.083Z,60.31
2022-09-14T07:16:32.127Z,60.60
2022-09-14T07:19:01.896Z,60.92
2022-09-14T07:21:29.317Z,59.64
2022-09-14T07:23:55.818Z,60.43
2022-09-14T07:26:24.995Z,59.82
2022-09-14T07:28:55.476Z,60.35
2022-09-14T07:31:27.623Z,59.13
2022-09-14T07:33:56.324Z,58.38
2022-09-14T07:36:24.884Z,59.80
2022-09-14T07:38:53.341Z,57.11
2022-09-14T07:41:25.339Z,57.37
2022-09-14T07:43:53.945Z,56.08
2022-09-14T07:46:21.537Z,56.05
2022-09-14T07:48:49.085Z,56.50
2022-09-14T07:51:15.927Z,56.76
2022-09-14T07:53:43.585Z,56.63
2022-09-14T07:56:11.862Z,56.77
2022-09-14T07:58:38.951Z,56.58
2022-09-14T08:01:11.915Z,56.02
2022-09-14T08:03:43.414Z,56.49
2022-09-14T08:06:10.684Z,56.42
2022-09-14T08:08:39.508Z,55.19
2022-09-14T08:11:11.216Z,55.59
2022-09-14T08:13:39.987Z,55.81
2022-09-14T08:16:06.962Z,55.56
2022-09-14T08:18:35.215Z,57.49
2022-09-14T08:21:13.268Z,56.57
2022-09-14T08:23:40.791Z,55.14
2022-09-14T08:26:09.776Z,57.81
2022-09-14T08:28:36.496Z,56.23
2022-09-14T08:31:08.935Z,56.33
2022-09-14T08:33:37.738Z,55.05
2022-09-14T08:36:06.290Z,54.10
2022-09-14T08:38:32.822Z,54.26
2022-09-14T08:41:09.632Z,54.77
2022-09-14T08:43:38.730Z,54.62
2022-09-14T08:46:11.253Z,55.78
2022-09-14T08:48:45.509Z,54.79
2022-09-14T08:51:12.025Z,56.00
2022-09-14T08:53:40.795Z,54.87
2022-09-14T08:56:18.409Z,54.02
2022-09-14T08:59:11.144Z,54.52
2022-09-14T09:01:37.509Z,54.98
2022-09-14T09:04:21.929Z,54.58
2022-09-14T09:07:13.049Z,53.55
2022-09-14T09:09:47.373Z,56.88
2022-09-14T09:12:29.852Z,54.48
2022-09-14T09:15:17.302Z,53.52
2022-09-14T09:17:48.386Z,52.80
2022-09-14T09:20:26.859Z,52.78
2022-09-14T09:23:28.168Z,51.42
2022-09-14T09:26:03.736Z,54.18
2022-09-14T09:28:30.901Z,50.77
2022-09-14T09:31:05.144Z,50.42
2022-09-14T09:33:32.025Z,50.92
2022-09-14T09:35:59.474Z,50.64
2022-09-14T09:38:28.592Z,49.65
2022-09-14T09:41:05.862Z,51.62
2022-09-14T09:43:49.288Z,50.63
2022-09-14T09:46:17.219Z,48.96
2022-09-14T09:48:45.570Z,49.35
2022-09-14T09:51:24.275Z,49.83
2022-09-14T09:53:54.130Z,48.38
2022-09-14T09:56:24.041Z,47.34
2022-09-14T09:58:52.058Z,48.21
2022-09-14T10:01:35.758Z,45.20
2022-09-14T10:04:25.456Z,44.73
2022-09-14T10:06:55.874Z,44.95
2022-09-14T10:09:26.976Z,42.88
2022-09-14T10:12:04.922Z,42.35
2022-09-14T10:14:34.380Z,42.09
2022-09-14T10:17:22.038Z,42.05
2022-09-14T10:19:52.276Z,43.23
2022-09-14T10:22:26.750Z,42.84
2022-09-14T10:25:13.235Z,42.15
2022-09-14T10:28:00.407Z,45.00
2022-09-14T10:31:11.676Z,42.47
2022-09-14T10:33:38.727Z,44.09
2022-09-14T10:36:19.251Z,43.44
2022-09-14T10:38:55.106Z,42.55
2022-09-14T10:41:27.143Z,46.68
2022-09-14T10:43:53.519Z,42.87
2022-09-14T10:46:30.725Z,43.10
2022-09-14T10:49:37.948Z,43.52
2022-09-14T10:52:43.555Z,42.90
2022-09-14T10:55:24.468Z,45.77
2022-09-14T10:58:24.661Z,44.15
2022-09-14T11:01:08.684Z,44.17
2022-09-14T11:03:53.176Z,45.97
2022-09-14T11:06:38.012Z,44.98
2022-09-14T11:09:20.364Z,43.65
2022-09-14T11:12:08.644Z,46.25
2022-09-14T11:14:53.637Z,44.70
2022-09-14T11:17:26.104Z,43.80
2022-09-14T11:20:21.009Z,43.43
2022-09-14T11:22:47.362Z,45.44
2022-09-14T11:25:36.378Z,43.73
2022-09-14T11:28:14.124Z,45.71
2022-09-14T11:30:50.774Z,44.16
2022-09-14T11:33:31.369Z,44.56
2022-09-14T11:36:07.277Z,45.51
2022-09-14T11:38:48.137Z,46.90
2022-09-14T11:41:24.105Z,46.54
2022-09-14T11:44:02.659Z,44.95
2022-09-14T11:46:45.059Z,44.24
2022-09-14T11:49:55.129Z,43.79
2022-09-14T11:52:24.570Z,44.67
2022-09-14T11:54:52.238Z,45.03
2022-09-14T11:57:23.034Z,44.13
2022-09-14T12:00:23.774Z,44.75
2022-09-14T12:03:02.473Z,45.26
2022-09-14T12:05:32.488Z,44.19
2022-09-14T12:08:04.522Z,43.73
2022-09-14T12:10:31.153Z,43.50
2022-09-14T12:13:06.480Z,45.21
2022-09-14T12:15:43.428Z,46.71
2022-09-14T12:18:09.998Z,45.24
2022-09-14T12:20:52.761Z,44.80
2022-09-14T12:23:37.224Z,44.52
2022-09-14T12:26:06.691Z,45.45
2022-09-14T12:28:50.265Z,45.55
2022-09-14T12:31:32.892Z,46.81
2022-09-14T12:34:23.765Z,46.29
2022-09-14T12:36:50.117Z,44.83
2022-09-14T12:39:24.154Z,44.87
2022-09-14T12:41:50.503Z,45.00
2022-09-14T12:44:39.949Z,45.42
2022-09-14T12:47:24.830Z,46.83
2022-09-14T12:49:57.681Z,47.04
2022-09-14T12:52:32.382Z,46.96
2022-09-14T12:55:28.035Z,46.03
2022-09-14T12:58:00.087Z,45.16
2022-09-14T13:00:29.846Z,46.12
2022-09-14T13:03:23.600Z,45.93
2022-09-14T13:05:50.962Z,46.31
2022-09-14T13:08:23.341Z,45.44
2022-09-14T13:10:51.835Z,44.87
2022-09-14T13:13:22.121Z,45.42
2022-09-14T13:15:58.526Z,45.56
2022-09-14T13:18:34.977Z,45.66
2022-09-14T13:21:14.369Z,45.85
2022-09-14T13:23:42.348Z,45.80
2022-09-14T13:26:16.813Z,46.43
2022-09-14T13:28:45.853Z,45.96
2022-09-14T13:31:16.812Z,46.73
2022-09-14T13:33:48.902Z,45.78
2022-09-14T13:36:18.873Z,46.36
2022-09-14T13:38:45.766Z,47.10
2022-09-14T13:41:22.156Z,45.98
2022-09-14T13:43:51.071Z,46.07
2022-09-14T13:46:20.450Z,47.08
2022-09-14T13:48:47.700Z,46.80
2022-09-14T13:51:15.293Z,46.16
2022-09-14T13:53:49.988Z,45.96
2022-09-14T13:56:25.103Z,46.02
2022-09-14T13:59:13.951Z,46.33
2022-09-14T14:01:46.558Z,45.84
2022-09-14T14:04:36.882Z,46.58
2022-09-14T14:07:12.268Z,46.18
2022-09-14T14:09:50.604Z,46.10
2022-09-14T14:12:27.678Z,46.26
2022-09-14T14:15:01.626Z,47.11
2022-09-14T14:17:27.993Z,46.70
2022-09-14T14:20:00.270Z,46.43
2022-09-14T14:22:33.191Z,46.01
2022-09-14T14:25:15.773Z,45.00
2022-09-14T14:27:44.773Z,45.05
2022-09-14T14:30:17.927Z,45.26
2022-09-14T14:32:48.927Z,44.93
2022-09-14T14:35:17.817Z,45.14
2022-09-14T14:37:44.257Z,44.85
2022-09-14T14:40:13.707Z,46.13
2022-09-14T14:42:41.054Z,45.55
2022-09-14T14:45:14.402Z,45.31
2022-09-14T14:47:41.088Z,45.58
2022-09-14T14:50:16.590Z,45.34
2022-09-14T14:52:43.173Z,45.02
2022-09-14T14:55:10.548Z,45.42
2022-09-14T14:57:38.887Z,45.78
2022-09-14T15:00:15.491Z,46.08
2022-09-14T15:02:42.567Z,45.43
2022-09-14T15:05:10.017Z,45.42
2022-09-14T15:07:37.863Z,45.06
2022-09-14T15:10:05.625Z,45.77
2022-09-14T15:12:32.472Z,45.53
2022-09-14T15:14:59.034Z,46.19
2022-09-14T15:17:25.637Z,45.56
2022-09-14T15:19:52.563Z,45.32
2022-09-14T15:22:19.078Z,45.27
2022-09-14T15:24:45.555Z,45.57
2022-09-14T15:27:12.026Z,45.52
2022-09-14T15:29:38.410Z,46.41
2022-09-14T15:32:05.144Z,47.48
2022-09-14T15:34:31.587Z,48.47
2022-09-14T15:36:58.870Z,46.34
2022-09-14T15:39:27.972Z,46.39
2022-09-14T15:41:55.669Z,46.25
2022-09-14T15:44:22.837Z,45.87
2022-09-14T15:46:49.700Z,46.03
2022-09-14T15:49:19.507Z,47.66
2022-09-14T15:51:50.346Z,47.36
2022-09-14T15:54:24.455Z,47.08
2022-09-14T15:56:54.402Z,48.61
2022-09-14T15:59:22.143Z,49.84
2022-09-14T16:01:49.207Z,49.56
2022-09-14T16:04:16.275Z,48.99
2022-09-14T16:06:42.657Z,49.40
2022-09-14T16:09:10.736Z,49.42
2022-09-14T16:11:38.640Z,49.09
2022-09-14T16:14:06.814Z,49.69
2022-09-14T16:16:35.011Z,49.62
2022-09-14T16:19:06.095Z,49.67
2022-09-14T16:21:32.903Z,51.21
2022-09-14T16:24:01.769Z,51.19
2022-09-14T16:26:32.236Z,50.08
2022-09-14T16:28:59.245Z,49.98
2022-09-14T16:31:35.295Z,50.94
2022-09-14T16:34:08.057Z,50.60
2022-09-14T16:36:37.128Z,49.39
2022-09-14T16:39:06.349Z,49.68
2022-09-14T16:41:32.892Z,49.92
2022-09-14T16:44:01.644Z,50.00
2022-09-14T16:46:30.086Z,53.52
2022-09-14T16:48:58.580Z,52.03
2022-09-14T16:51:27.242Z,53.54
2022-09-14T16:53:53.907Z,54.49
2022-09-14T16:56:23.019Z,53.12
2022-09-14T16:58:51.775Z,53.82
2022-09-14T17:01:25.763Z,55.52
2022-09-14T17:03:53.804Z,53.71
2022-09-14T17:06:22.604Z,54.68
2022-09-14T17:08:49.822Z,53.94
2022-09-14T17:11:16.981Z,54.69
2022-09-14T17:13:44.430Z,55.36
2022-09-14T17:16:13.913Z,54.86
2022-09-14T17:18:41.871Z,54.73
2022-09-14T17:21:11.162Z,54.70
2022-09-14T17:23:37.729Z,55.33
2022-09-14T17:26:06.079Z,55.58
2022-09-14T17:28:34.841Z,56.05
2022-09-14T17:31:02.796Z,56.15
2022-09-14T17:33:30.023Z,57.16
2022-09-14T17:35:58.418Z,55.91
2022-09-14T17:38:27.605Z,55.63
2022-09-14T17:41:04.838Z,55.62
2022-09-14T17:43:32.568Z,55.57
2022-09-14T17:45:59.455Z,55.89
2022-09-14T17:48:27.724Z,56.11
2022-09-14T17:50:54.987Z,55.84
2022-09-14T17:53:21.450Z,55.68
2022-09-14T17:55:48.169Z,56.53
2022-09-14T17:58:19.436Z,56.35
2022-09-14T18:00:46.272Z,56.52
2022-09-14T18:03:12.897Z,56.36
2022-09-14T18:05:39.377Z,57.17
2022-09-14T18:08:05.816Z,57.76
2022-09-14T18:10:32.230Z,57.23
2022-09-14T18:12:58.639Z,57.26
2022-09-14T18:15:25.093Z,57.31
2022-09-14T18:17:52.289Z,57.57
2022-09-14T18:20:18.810Z,57.07
2022-09-14T18:22:45.213Z,58.04
2022-09-14T18:25:11.619Z,57.69
2022-09-14T18:27:38.039Z,57.48
2022-09-14T18:30:05.059Z,57.82
2022-09-14T18:32:31.429Z,57.82
2022-09-14T18:34:57.883Z,58.10
2022-09-14T18:37:24.314Z,57.59
2022-09-14T18:39:50.819Z,58.42
2022-09-14T18:42:17.251Z,58.33
2022-09-14T18:44:43.811Z,58.15
2022-09-14T18:47:10.184Z,58.18
2022-09-14T18:49:36.596Z,58.28
2022-09-14T18:52:03.086Z,58.50
2022-09-14T18:54:29.996Z,58.48
2022-09-14T18:56:56.401Z,59.93
2022-09-14T18:59:22.856Z,58.91
2022-09-14T19:01:49.271Z,58.99
2022-09-14T19:04:15.841Z,59.05
2022-09-14T19:06:44.306Z,59.32
2022-09-14T19:09:11.019Z,58.58
2022-09-14T19:11:37.504Z,58.78
2022-09-14T19:14:09.871Z,59.12
2022-09-14T19:16:39.018Z,60.06
2022-09-14T19:19:06.685Z,59.37
2022-09-14T19:21:33.435Z,58.97
2022-09-14T19:24:00.874Z,59.23
2022-09-14T19:26:32.891Z,59.34
2022-09-14T19:29:01.016Z,59.22
2022-09-14T19:31:30.347Z,59.40
2022-09-14T19:33:58.472Z,59.64
2022-09-14T19:36:25.188Z,60.01
2022-09-14T19:38:53.495Z,59.91
2022-09-14T19:41:21.699Z,59.78
2022-09-14T19:43:48.309Z,59.72
2022-09-14T19:46:18.246Z,59.58
2022-09-14T19:48:46.109Z,60.08
2022-09-14T19:51:15.499Z,60.41
2022-09-14T19:53:42.726Z,60.59
2022-09-14T19:56:12.626Z,60.87
2022-09-14T19:58:46.858Z,60.66
2022-09-14T20:01:15.127Z,60.71
2022-09-14T20:03:43.192Z,61.37
2022-09-14T20:06:19.020Z,61.08
2022-09-14T20:08:46.833Z,60.76
2022-09-14T20:11:19.194Z,60.88
2022-09-14T20:13:48.634Z,60.70
2022-09-14T20:16:17.732Z,60.68
2022-09-14T20:18:45.518Z,61.06
2022-09-14T20:21:16.087Z,60.90
2022-09-14T20:23:58.258Z,61.59
2022-09-14T20:26:30.307Z,61.19
2022-09-14T20:28:59.866Z,60.91
2022-09-14T20:31:26.961Z,60.85
2022-09-14T20:33:53.380Z,60.84
2022-09-14T20:36:21.544Z,61.62
2022-09-14T20:38:54.383Z,61.09
2022-09-14T20:41:23.343Z,61.29
2022-09-14T20:43:50.050Z,60.98
2022-09-14T20:46:19.933Z,61.24
2022-09-14T20:48:48.095Z,61.47
2022-09-14T20:51:19.950Z,60.89
2022-09-14T20:53:47.620Z,61.36
2022-09-14T20:56:17.550Z,61.34
2022-09-14T20:58:44.568Z,61.43
2022-09-14T21:01:22.692Z,61.37
2022-09-14T21:03:50.368Z,61.21
2022-09-14T21:06:24.623Z,61.54
2022-09-14T21:08:51.513Z,61.30
2022-09-14T21:11:21.808Z,61.46
2022-09-14T21:13:49.412Z,61.57
2022-09-14T21:16:18.486Z,61.91
2022-09-14T21:18:47.005Z,61.71
2022-09-14T21:21:15.765Z,61.99
2022-09-14T21:23:42.989Z,61.75
2022-09-14T21:26:11.159Z,62.01
2022-09-14T21:28:39.729Z,61.46
2022-09-14T21:31:16.085Z,62.03
2022-09-14T21:33:44.591Z,61.76
2022-09-14T21:36:17.629Z,61.59
2022-09-14T21:38:51.118Z,62.58
2022-09-14T21:41:18.867Z,63.04
2022-09-14T21:43:45.755Z,62.18
2022-09-14T21:46:12.197Z,61.42
2022-09-14T21:48:39.016Z,62.02
2022-09-14T21:51:17.320Z,62.02
2022-09-14T21:53:49.562Z,62.85
2022-09-14T21:56:17.356Z,62.34
2022-09-14T21:58:44.028Z,62.26
2022-09-14T22:01:11.948Z,61.94
2022-09-14T22:03:38.922Z,61.95
2022-09-14T22:06:07.818Z,62.01
2022-09-14T22:08:35.375Z,62.03
2022-09-14T22:11:14.448Z,62.00
2022-09-14T22:13:41.761Z,61.95
2022-09-14T22:16:13.792Z,62.12
2022-09-14T22:18:48.818Z,61.90
2022-09-14T22:21:16.194Z,62.28
2022-09-14T22:23:43.142Z,62.47
2022-09-14T22:26:11.935Z,62.04
2022-09-14T22:28:40.747Z,62.63
2022-09-14T22:31:08.511Z,62.13
2022-09-14T22:33:35.375Z,62.29
2022-09-14T22:36:03.754Z,62.29
2022-09-14T22:38:33.542Z,62.00
2022-09-14T22:41:05.017Z,62.15
2022-09-14T22:43:32.897Z,61.95
2022-09-14T22:45:59.755Z,61.96
2022-09-14T22:48:26.484Z,61.96
2022-09-14T22:50:55.515Z,62.13
2022-09-14T22:53:23.414Z,62.32
2022-09-14T22:55:50.768Z,62.19
2022-09-14T22:58:19.250Z,61.89
2022-09-14T23:00:46.549Z,62.23
2022-09-14T23:03:14.594Z,62.12
2022-09-14T23:05:48.936Z,62.02
2022-09-14T23:08:15.927Z,61.95
2022-09-14T23:10:42.402Z,62.47
2022-09-14T23:13:08.753Z,61.82
2022-09-14T23:15:39.419Z,62.22
2022-09-14T23:18:06.456Z,62.26
2022-09-14T23:20:39.677Z,61.93
2022-09-14T23:23:06.599Z,61.97
2022-09-14T23:25:45.123Z,62.00
2022-09-14T23:28:12.545Z,61.46
2022-09-14T23:30:39.658Z,62.33
2022-09-14T23:33:06.625Z,62.03
2022-09-14T23:35:37.470Z,61.95
2022-09-14T23:38:04.195Z,62.06
2022-09-14T23:40:30.632Z,61.89
2022-09-14T23:42:57.179Z,62.14
2022-09-14T23:45:23.571Z,61.92
2022-09-14T23:47:49.990Z,61.99
2022-09-14T23:50:16.547Z,62.05
2022-09-14T23:52:42.932Z,62.37
2022-09-14T23:55:09.487Z,62.04
2022-09-14T23:57:36.637Z,62.32
